sensor_id;sensor_type;location;lat;lon;timestamp;P1;P2;P0
36513;PMS5003;66331;46.796;9.824;2023-02-01T00:00:30;6;5;
36513;PMS5003;66331;46.796;9.824;2023-02-01T00:02:58;3;3;
36513;PMS5003;66331;46.796;9.824;2023-02-01T00:05:25;2;2;
36513;PMS5003;66331;46.796;9.824;2023-02-01T00:07:52;5;3;
36513;PMS5003;66331;46.796;9.824;2023-02-01T00:10:19;3;3;
36513;PMS5003;66331;46.796;9.824;2023-02-01T00:12:46;5;5;
36513;PMS5003;66331;46.796;9.824;2023-02-01T00:15:13;3;3;
36513;PMS5003;66331;46.796;9.824;2023-02-01T00:17:40;2;1;
36513;PMS5003;66331;46.796;9.824;2023-02-01T00:20:08;2;2;
36513;PMS5003;66331;46.796;9.824;2023-02-01T00:22:36;6;6;
36513;PMS5003;66331;46.796;9.824;2023-02-01T00:25:04;3;3;
36513;PMS5003;66331;46.796;9.824;2023-02-01T00:27:31;2;2;
36513;PMS5003;66331;46.796;9.824;2023-02-01T00:29:58;5;2;
36513;PMS5003;66331;46.796;9.824;2023-02-01T00:32:25;6;2;
36513;PMS5003;66331;46.796;9.824;2023-02-01T00:34:52;1;1;
36513;PMS5003;66331;46.796;9.824;2023-02-01T00:37:19;2;1;
36513;PMS5003;66331;46.796;9.824;2023-02-01T00:39:46;1;1;
36513;PMS5003;66331;46.796;9.824;2023-02-01T00:42:14;1;1;
36513;PMS5003;66331;46.796;9.824;2023-02-01T00:44:41;1;1;
36513;PMS5003;66331;46.796;9.824;2023-02-01T00:47:08;1;1;
36513;PMS5003;66331;46.796;9.824;2023-02-01T00:49:35;1;1;
36513;PMS5003;66331;46.796;9.824;2023-02-01T00:52:02;1;1;
36513;PMS5003;66331;46.796;9.824;2023-02-01T00:54:29;1;1;
36513;PMS5003;66331;46.796;9.824;2023-02-01T00:56:56;2;2;
36513;PMS5003;66331;46.796;9.824;2023-02-01T00:59:23;1;1;
36513;PMS5003;66331;46.796;9.824;2023-02-01T01:01:51;1;1;
36513;PMS5003;66331;46.796;9.824;2023-02-01T01:04:18;1;1;
36513;PMS5003;66331;46.796;9.824;2023-02-01T01:06:46;2;1;
36513;PMS5003;66331;46.796;9.824;2023-02-01T01:09:13;2;2;
36513;PMS5003;66331;46.796;9.824;2023-02-01T01:11:40;0;0;
36513;PMS5003;66331;46.796;9.824;2023-02-01T01:14:09;1;1;
36513;PMS5003;66331;46.796;9.824;2023-02-01T01:16:37;0;0;
36513;PMS5003;66331;46.796;9.824;2023-02-01T01:19:05;1;1;
36513;PMS5003;66331;46.796;9.824;2023-02-01T01:21:37;2;2;
36513;PMS5003;66331;46.796;9.824;2023-02-01T01:24:05;1;1;
36513;PMS5003;66331;46.796;9.824;2023-02-01T01:26:33;1;0;
36513;PMS5003;66331;46.796;9.824;2023-02-01T01:29:00;0;0;
36513;PMS5003;66331;46.796;9.824;2023-02-01T01:31:29;0;0;
36513;PMS5003;66331;46.796;9.824;2023-02-01T01:33:58;0;0;
36513;PMS5003;66331;46.796;9.824;2023-02-01T01:36:26;1;0;
36513;PMS5003;66331;46.796;9.824;2023-02-01T01:38:55;0;0;
36513;PMS5003;66331;46.796;9.824;2023-02-01T01:41:24;1;1;
36513;PMS5003;66331;46.796;9.824;2023-02-01T01:43:56;0;0;
36513;PMS5003;66331;46.796;9.824;2023-02-01T01:46:26;1;1;
36513;PMS5003;66331;46.796;9.824;2023-02-01T01:48:58;1;1;
36513;PMS5003;66331;46.796;9.824;2023-02-01T01:51:34;0;0;
36513;PMS5003;66331;46.796;9.824;2023-02-01T01:54:05;0;0;
36513;PMS5003;66331;46.796;9.824;2023-02-01T01:56:37;1;1;
36513;PMS5003;66331;46.796;9.824;2023-02-01T01:59:05;1;1;
36513;PMS5003;66331;46.796;9.824;2023-02-01T02:01:34;1;1;
36513;PMS5003;66331;46.796;9.824;2023-02-01T02:04:02;1;0;
36513;PMS5003;66331;46.796;9.824;2023-02-01T02:06:34;0;0;
36513;PMS5003;66331;46.796;9.824;2023-02-01T02:09:09;0;0;
36513;PMS5003;66331;46.796;9.824;2023-02-01T02:11:37;0;0;
36513;PMS5003;66331;46.796;9.824;2023-02-01T02:14:06;1;1;
36513;PMS5003;66331;46.796;9.824;2023-02-01T02:16:42;0;0;
36513;PMS5003;66331;46.796;9.824;2023-02-01T02:19:30;0;0;
36513;PMS5003;66331;46.796;9.824;2023-02-01T02:22:17;0;0;
36513;PMS5003;66331;46.796;9.824;2023-02-01T02:25:26;0;0;
36513;PMS5003;66331;46.796;9.824;2023-02-01T02:28:36;0;0;
36513;PMS5003;66331;46.796;9.824;2023-02-01T02:31:49;0;0;
36513;PMS5003;66331;46.796;9.824;2023-02-01T02:34:39;0;0;
36513;PMS5003;66331;46.796;9.824;2023-02-01T02:37:15;0;0;
36513;PMS5003;66331;46.796;9.824;2023-02-01T02:39:53;0;0;
36513;PMS5003;66331;46.796;9.824;2023-02-01T02:42:31;0;0;
36513;PMS5003;66331;46.796;9.824;2023-02-01T02:45:07;0;0;
36513;PMS5003;66331;46.796;9.824;2023-02-01T02:47:42;0;0;
36513;PMS5003;66331;46.796;9.824;2023-02-01T02:50:15;0;0;
36513;PMS5003;66331;46.796;9.824;2023-02-01T02:52:51;0;0;
36513;PMS5003;66331;46.796;9.824;2023-02-01T02:55:24;1;0;
36513;PMS5003;66331;46.796;9.824;2023-02-01T02:57:54;1;1;
36513;PMS5003;66331;46.796;9.824;2023-02-01T03:00:25;0;0;
36513;PMS5003;66331;46.796;9.824;2023-02-01T03:02:55;1;0;
36513;PMS5003;66331;46.796;9.824;2023-02-01T03:05:22;2;2;
36513;PMS5003;66331;46.796;9.824;2023-02-01T03:07:54;0;0;
36513;PMS5003;66331;46.796;9.824;2023-02-01T03:10:32;1;1;
36513;PMS5003;66331;46.796;9.824;2023-02-01T03:13:06;0;0;
36513;PMS5003;66331;46.796;9.824;2023-02-01T03:15:38;0;0;
36513;PMS5003;66331;46.796;9.824;2023-02-01T03:18:11;0;0;
36513;PMS5003;66331;46.796;9.824;2023-02-01T03:20:42;0;0;
36513;PMS5003;66331;46.796;9.824;2023-02-01T03:23:15;0;0;
36513;PMS5003;66331;46.796;9.824;2023-02-01T03:25:46;0;0;
36513;PMS5003;66331;46.796;9.824;2023-02-01T03:28:17;0;0;
36513;PMS5003;66331;46.796;9.824;2023-02-01T03:30:47;0;0;
36513;PMS5003;66331;46.796;9.824;2023-02-01T03:33:16;0;0;
36513;PMS5003;66331;46.796;9.824;2023-02-01T03:35:46;1;0;
36513;PMS5003;66331;46.796;9.824;2023-02-01T03:38:21;0;0;
36513;PMS5003;66331;46.796;9.824;2023-02-01T03:40:54;0;0;
36513;PMS5003;66331;46.796;9.824;2023-02-01T03:43:27;0;0;
36513;PMS5003;66331;46.796;9.824;2023-02-01T03:46:01;0;0;
36513;PMS5003;66331;46.796;9.824;2023-02-01T03:48:31;1;1;
36513;PMS5003;66331;46.796;9.824;2023-02-01T03:51:00;1;1;
36513;PMS5003;66331;46.796;9.824;2023-02-01T03:53:31;1;1;
36513;PMS5003;66331;46.796;9.824;2023-02-01T03:56:00;0;0;
36513;PMS5003;66331;46.796;9.824;2023-02-01T03:58:27;1;1;
36513;PMS5003;66331;46.796;9.824;2023-02-01T04:00:55;0;0;
36513;PMS5003;66331;46.796;9.824;2023-02-01T04:03:24;1;1;
36513;PMS5003;66331;46.796;9.824;2023-02-01T04:05:52;0;0;
36513;PMS5003;66331;46.796;9.824;2023-02-01T04:08:21;0;0;
36513;PMS5003;66331;46.796;9.824;2023-02-01T04:10:48;1;1;
36513;PMS5003;66331;46.796;9.824;2023-02-01T04:13:16;0;0;
36513;PMS5003;66331;46.796;9.824;2023-02-01T04:15:43;1;0;
36513;PMS5003;66331;46.796;9.824;2023-02-01T04:18:10;2;1;
36513;PMS5003;66331;46.796;9.824;2023-02-01T04:20:37;1;1;
36513;PMS5003;66331;46.796;9.824;2023-02-01T04:23:05;1;0;
36513;PMS5003;66331;46.796;9.824;2023-02-01T04:25:32;1;1;
36513;PMS5003;66331;46.796;9.824;2023-02-01T04:27:59;0;0;
36513;PMS5003;66331;46.796;9.824;2023-02-01T04:30:26;1;1;
36513;PMS5003;66331;46.796;9.824;2023-02-01T04:32:54;0;0;
36513;PMS5003;66331;46.796;9.824;2023-02-01T04:35:21;0;0;
36513;PMS5003;66331;46.796;9.824;2023-02-01T04:37:48;1;1;
36513;PMS5003;66331;46.796;9.824;2023-02-01T04:40:15;0;0;
36513;PMS5003;66331;46.796;9.824;2023-02-01T04:42:43;1;1;
36513;PMS5003;66331;46.796;9.824;2023-02-01T04:45:10;1;1;
36513;PMS5003;66331;46.796;9.824;2023-02-01T04:47:37;0;0;
36513;PMS5003;66331;46.796;9.824;2023-02-01T04:50:05;1;1;
36513;PMS5003;66331;46.796;9.824;2023-02-01T04:52:32;1;1;
36513;PMS5003;66331;46.796;9.824;2023-02-01T04:55:00;0;0;
36513;PMS5003;66331;46.796;9.824;2023-02-01T04:57:27;1;1;
36513;PMS5003;66331;46.796;9.824;2023-02-01T04:59:54;1;1;
36513;PMS5003;66331;46.796;9.824;2023-02-01T05:02:23;0;0;
36513;PMS5003;66331;46.796;9.824;2023-02-01T05:04:50;1;1;
36513;PMS5003;66331;46.796;9.824;2023-02-01T05:07:17;1;1;
36513;PMS5003;66331;46.796;9.824;2023-02-01T05:09:44;1;1;
36513;PMS5003;66331;46.796;9.824;2023-02-01T05:12:11;1;1;
36513;PMS5003;66331;46.796;9.824;2023-02-01T05:14:39;0;0;
36513;PMS5003;66331;46.796;9.824;2023-02-01T05:17:06;0;0;
36513;PMS5003;66331;46.796;9.824;2023-02-01T05:19:33;1;1;
36513;PMS5003;66331;46.796;9.824;2023-02-01T05:22:01;1;1;
36513;PMS5003;66331;46.796;9.824;2023-02-01T05:24:28;0;0;
36513;PMS5003;66331;46.796;9.824;2023-02-01T05:26:55;2;2;
36513;PMS5003;66331;46.796;9.824;2023-02-01T05:29:22;1;1;
36513;PMS5003;66331;46.796;9.824;2023-02-01T05:31:50;1;1;
36513;PMS5003;66331;46.796;9.824;2023-02-01T05:34:17;2;2;
36513;PMS5003;66331;46.796;9.824;2023-02-01T05:36:44;1;1;
36513;PMS5003;66331;46.796;9.824;2023-02-01T05:39:11;2;2;
36513;PMS5003;66331;46.796;9.824;2023-02-01T05:41:39;2;2;
36513;PMS5003;66331;46.796;9.824;2023-02-01T05:44:06;2;1;
36513;PMS5003;66331;46.796;9.824;2023-02-01T05:46:33;4;2;
36513;PMS5003;66331;46.796;9.824;2023-02-01T05:49:00;2;2;
36513;PMS5003;66331;46.796;9.824;2023-02-01T05:51:28;6;4;
36513;PMS5003;66331;46.796;9.824;2023-02-01T05:53:55;4;4;
36513;PMS5003;66331;46.796;9.824;2023-02-01T05:56:22;8;6;
36513;PMS5003;66331;46.796;9.824;2023-02-01T05:58:50;5;4;
36513;PMS5003;66331;46.796;9.824;2023-02-01T06:01:17;5;4;
36513;PMS5003;66331;46.796;9.824;2023-02-01T06:03:44;5;4;
36513;PMS5003;66331;46.796;9.824;2023-02-01T06:06:11;2;2;
36513;PMS5003;66331;46.796;9.824;2023-02-01T06:08:39;7;4;
36513;PMS5003;66331;46.796;9.824;2023-02-01T06:11:06;11;8;
36513;PMS5003;66331;46.796;9.824;2023-02-01T06:13:33;5;5;
36513;PMS5003;66331;46.796;9.824;2023-02-01T06:16:01;7;5;
36513;PMS5003;66331;46.796;9.824;2023-02-01T06:18:29;7;5;
36513;PMS5003;66331;46.796;9.824;2023-02-01T06:20:57;8;8;
36513;PMS5003;66331;46.796;9.824;2023-02-01T06:23:25;8;7;
36513;PMS5003;66331;46.796;9.824;2023-02-01T06:25:57;8;7;
36513;PMS5003;66331;46.796;9.824;2023-02-01T06:28:26;5;4;
36513;PMS5003;66331;46.796;9.824;2023-02-01T06:30:53;5;5;
36513;PMS5003;66331;46.796;9.824;2023-02-01T06:33:20;5;5;
36513;PMS5003;66331;46.796;9.824;2023-02-01T06:35:48;5;5;
36513;PMS5003;66331;46.796;9.824;2023-02-01T06:38:15;2;2;
36513;PMS5003;66331;46.796;9.824;2023-02-01T06:40:42;4;4;
36513;PMS5003;66331;46.796;9.824;2023-02-01T06:43:09;9;8;
36513;PMS5003;66331;46.796;9.824;2023-02-01T06:45:37;5;4;
36513;PMS5003;66331;46.796;9.824;2023-02-01T06:48:04;5;4;
36513;PMS5003;66331;46.796;9.824;2023-02-01T06:50:31;4;2;
36513;PMS5003;66331;46.796;9.824;2023-02-01T06:52:59;7;4;
36513;PMS5003;66331;46.796;9.824;2023-02-01T06:55:27;5;4;
36513;PMS5003;66331;46.796;9.824;2023-02-01T06:57:54;8;4;
36513;PMS5003;66331;46.796;9.824;2023-02-01T07:00:22;5;5;
36513;PMS5003;66331;46.796;9.824;2023-02-01T07:02:50;2;2;
36513;PMS5003;66331;46.796;9.824;2023-02-01T07:05:17;4;4;
36513;PMS5003;66331;46.796;9.824;2023-02-01T07:07:44;6;5;
36513;PMS5003;66331;46.796;9.824;2023-02-01T07:10:11;11;8;
36513;PMS5003;66331;46.796;9.824;2023-02-01T07:12:38;9;8;
36513;PMS5003;66331;46.796;9.824;2023-02-01T07:15:06;5;5;
36513;PMS5003;66331;46.796;9.824;2023-02-01T07:17:34;4;4;
36513;PMS5003;66331;46.796;9.824;2023-02-01T07:20:01;4;4;
36513;PMS5003;66331;46.796;9.824;2023-02-01T07:22:29;9;6;
36513;PMS5003;66331;46.796;9.824;2023-02-01T07:24:57;6;5;
36513;PMS5003;66331;46.796;9.824;2023-02-01T07:27:25;9;5;
36513;PMS5003;66331;46.796;9.824;2023-02-01T07:29:52;9;8;
36513;PMS5003;66331;46.796;9.824;2023-02-01T07:32:19;7;5;
36513;PMS5003;66331;46.796;9.824;2023-02-01T07:34:46;5;5;
36513;PMS5003;66331;46.796;9.824;2023-02-01T07:37:14;8;5;
36513;PMS5003;66331;46.796;9.824;2023-02-01T07:39:41;8;8;
36513;PMS5003;66331;46.796;9.824;2023-02-01T07:42:08;7;7;
36513;PMS5003;66331;46.796;9.824;2023-02-01T07:44:36;9;8;
36513;PMS5003;66331;46.796;9.824;2023-02-01T07:47:03;9;8;
36513;PMS5003;66331;46.796;9.824;2023-02-01T07:49:31;12;8;
36513;PMS5003;66331;46.796;9.824;2023-02-01T07:51:58;9;9;
36513;PMS5003;66331;46.796;9.824;2023-02-01T07:54:26;9;9;
36513;PMS5003;66331;46.796;9.824;2023-02-01T07:56:54;12;9;
36513;PMS5003;66331;46.796;9.824;2023-02-01T07:59:21;8;5;
36513;PMS5003;66331;46.796;9.824;2023-02-01T08:01:48;8;8;
36513;PMS5003;66331;46.796;9.824;2023-02-01T08:04:16;8;8;
36513;PMS5003;66331;46.796;9.824;2023-02-01T08:06:43;6;6;
36513;PMS5003;66331;46.796;9.824;2023-02-01T08:09:10;8;6;
36513;PMS5003;66331;46.796;9.824;2023-02-01T08:11:37;5;5;
36513;PMS5003;66331;46.796;9.824;2023-02-01T08:14:05;5;5;
36513;PMS5003;66331;46.796;9.824;2023-02-01T08:16:32;5;5;
36513;PMS5003;66331;46.796;9.824;2023-02-01T08:18:59;6;4;
36513;PMS5003;66331;46.796;9.824;2023-02-01T08:21:26;1;1;
36513;PMS5003;66331;46.796;9.824;2023-02-01T08:23:54;2;2;
36513;PMS5003;66331;46.796;9.824;2023-02-01T08:26:22;5;5;
36513;PMS5003;66331;46.796;9.824;2023-02-01T08:28:51;4;2;
36513;PMS5003;66331;46.796;9.824;2023-02-01T08:31:20;4;4;
36513;PMS5003;66331;46.796;9.824;2023-02-01T08:33:49;2;2;
36513;PMS5003;66331;46.796;9.824;2023-02-01T08:36:19;2;2;
36513;PMS5003;66331;46.796;9.824;2023-02-01T08:38:47;4;4;
36513;PMS5003;66331;46.796;9.824;2023-02-01T08:41:15;5;5;
36513;PMS5003;66331;46.796;9.824;2023-02-01T08:43:44;2;2;
36513;PMS5003;66331;46.796;9.824;2023-02-01T08:46:12;4;4;
36513;PMS5003;66331;46.796;9.824;2023-02-01T08:48:40;4;4;
36513;PMS5003;66331;46.796;9.824;2023-02-01T08:51:09;4;2;
36513;PMS5003;66331;46.796;9.824;2023-02-01T08:53:43;1;1;
36513;PMS5003;66331;46.796;9.824;2023-02-01T08:56:12;2;2;
36513;PMS5003;66331;46.796;9.824;2023-02-01T08:58:40;5;5;
36513;PMS5003;66331;46.796;9.824;2023-02-01T09:01:13;5;4;
36513;PMS5003;66331;46.796;9.824;2023-02-01T09:03:49;5;3;
36513;PMS5003;66331;46.796;9.824;2023-02-01T09:06:27;2;2;
36513;PMS5003;66331;46.796;9.824;2023-02-01T09:08:54;3;3;
36513;PMS5003;66331;46.796;9.824;2023-02-01T09:11:22;3;3;
36513;PMS5003;66331;46.796;9.824;2023-02-01T09:13:49;3;3;
36513;PMS5003;66331;46.796;9.824;2023-02-01T09:16:16;5;3;
36513;PMS5003;66331;46.796;9.824;2023-02-01T09:18:49;2;2;
36513;PMS5003;66331;46.796;9.824;2023-02-01T09:21:16;3;2;
36513;PMS5003;66331;46.796;9.824;2023-02-01T09:24:31;2;1;
36513;PMS5003;66331;46.796;9.824;2023-02-01T09:27:13;5;5;
36513;PMS5003;66331;46.796;9.824;2023-02-01T09:29:40;8;7;
36513;PMS5003;66331;46.796;9.824;2023-02-01T09:32:08;8;7;
36513;PMS5003;66331;46.796;9.824;2023-02-01T09:34:35;8;8;
36513;PMS5003;66331;46.796;9.824;2023-02-01T09:37:02;15;11;
36513;PMS5003;66331;46.796;9.824;2023-02-01T09:39:29;10;8;
36513;PMS5003;66331;46.796;9.824;2023-02-01T09:41:59;10;8;
36513;PMS5003;66331;46.796;9.824;2023-02-01T09:44:39;10;8;
36513;PMS5003;66331;46.796;9.824;2023-02-01T09:47:17;7;5;
36513;PMS5003;66331;46.796;9.824;2023-02-01T09:49:49;6;5;
36513;PMS5003;66331;46.796;9.824;2023-02-01T09:52:23;2;2;
36513;PMS5003;66331;46.796;9.824;2023-02-01T09:54:57;6;4;
36513;PMS5003;66331;46.796;9.824;2023-02-01T09:57:35;1;1;
36513;PMS5003;66331;46.796;9.824;2023-02-01T10:00:14;2;2;
36513;PMS5003;66331;46.796;9.824;2023-02-01T10:02:45;2;2;
36513;PMS5003;66331;46.796;9.824;2023-02-01T10:05:13;1;1;
36513;PMS5003;66331;46.796;9.824;2023-02-01T10:07:44;2;2;
36513;PMS5003;66331;46.796;9.824;2023-02-01T10:10:20;1;1;
36513;PMS5003;66331;46.796;9.824;2023-02-01T10:13:05;3;1;
36513;PMS5003;66331;46.796;9.824;2023-02-01T10:15:46;0;0;
36513;PMS5003;66331;46.796;9.824;2023-02-01T10:18:36;1;1;
36513;PMS5003;66331;46.796;9.824;2023-02-01T10:21:18;0;0;
36513;PMS5003;66331;46.796;9.824;2023-02-01T10:23:59;0;0;
36513;PMS5003;66331;46.796;9.824;2023-02-01T10:26:39;0;0;
36513;PMS5003;66331;46.796;9.824;2023-02-01T10:29:11;0;0;
36513;PMS5003;66331;46.796;9.824;2023-02-01T10:31:44;0;0;
36513;PMS5003;66331;46.796;9.824;2023-02-01T10:34:15;0;0;
36513;PMS5003;66331;46.796;9.824;2023-02-01T10:36:50;0;0;
36513;PMS5003;66331;46.796;9.824;2023-02-01T10:39:21;0;0;
36513;PMS5003;66331;46.796;9.824;2023-02-01T10:41:49;0;0;
36513;PMS5003;66331;46.796;9.824;2023-02-01T10:44:18;0;0;
36513;PMS5003;66331;46.796;9.824;2023-02-01T10:46:51;0;0;
36513;PMS5003;66331;46.796;9.824;2023-02-01T10:49:18;0;0;
36513;PMS5003;66331;46.796;9.824;2023-02-01T10:51:51;0;0;
36513;PMS5003;66331;46.796;9.824;2023-02-01T10:54:31;0;0;
36513;PMS5003;66331;46.796;9.824;2023-02-01T10:56:59;0;0;
36513;PMS5003;66331;46.796;9.824;2023-02-01T10:59:27;1;0;
36513;PMS5003;66331;46.796;9.824;2023-02-01T11:01:58;0;0;
36513;PMS5003;66331;46.796;9.824;2023-02-01T11:04:26;0;0;
36513;PMS5003;66331;46.796;9.824;2023-02-01T11:07:04;0;0;
36513;PMS5003;66331;46.796;9.824;2023-02-01T11:09:35;0;0;
36513;PMS5003;66331;46.796;9.824;2023-02-01T11:12:07;0;0;
36513;PMS5003;66331;46.796;9.824;2023-02-01T11:14:50;0;0;
36513;PMS5003;66331;46.796;9.824;2023-02-01T11:17:18;0;0;
36513;PMS5003;66331;46.796;9.824;2023-02-01T11:19:56;0;0;
36513;PMS5003;66331;46.796;9.824;2023-02-01T11:22:24;0;0;
36513;PMS5003;66331;46.796;9.824;2023-02-01T11:24:52;0;0;
36513;PMS5003;66331;46.796;9.824;2023-02-01T11:27:20;1;0;
36513;PMS5003;66331;46.796;9.824;2023-02-01T11:29:50;0;0;
36513;PMS5003;66331;46.796;9.824;2023-02-01T11:32:20;0;0;
36513;PMS5003;66331;46.796;9.824;2023-02-01T11:34:49;0;0;
36513;PMS5003;66331;46.796;9.824;2023-02-01T11:37:20;0;0;
36513;PMS5003;66331;46.796;9.824;2023-02-01T11:39:53;0;0;
36513;PMS5003;66331;46.796;9.824;2023-02-01T11:42:21;1;0;
36513;PMS5003;66331;46.796;9.824;2023-02-01T11:44:49;1;1;
36513;PMS5003;66331;46.796;9.824;2023-02-01T11:47:19;0;0;
36513;PMS5003;66331;46.796;9.824;2023-02-01T11:49:49;0;0;
36513;PMS5003;66331;46.796;9.824;2023-02-01T11:52:19;0;0;
36513;PMS5003;66331;46.796;9.824;2023-02-01T11:55:00;0;0;
36513;PMS5003;66331;46.796;9.824;2023-02-01T11:57:38;0;0;
36513;PMS5003;66331;46.796;9.824;2023-02-01T12:00:23;0;0;
36513;PMS5003;66331;46.796;9.824;2023-02-01T12:03:14;1;1;
36513;PMS5003;66331;46.796;9.824;2023-02-01T12:06:05;0;0;
36513;PMS5003;66331;46.796;9.824;2023-02-01T12:08:41;0;0;
36513;PMS5003;66331;46.796;9.824;2023-02-01T12:11:32;0;0;
36513;PMS5003;66331;46.796;9.824;2023-02-01T12:14:13;0;0;
36513;PMS5003;66331;46.796;9.824;2023-02-01T12:16:52;1;1;
36513;PMS5003;66331;46.796;9.824;2023-02-01T12:19:45;0;0;
36513;PMS5003;66331;46.796;9.824;2023-02-01T12:22:29;0;0;
36513;PMS5003;66331;46.796;9.824;2023-02-01T12:25:13;0;0;
36513;PMS5003;66331;46.796;9.824;2023-02-01T12:27:53;0;0;
36513;PMS5003;66331;46.796;9.824;2023-02-01T12:30:38;0;0;
36513;PMS5003;66331;46.796;9.824;2023-02-01T12:33:17;0;0;
36513;PMS5003;66331;46.796;9.824;2023-02-01T12:35:59;0;0;
36513;PMS5003;66331;46.796;9.824;2023-02-01T12:38:41;0;0;
36513;PMS5003;66331;46.796;9.824;2023-02-01T12:41:16;0;0;
36513;PMS5003;66331;46.796;9.824;2023-02-01T12:43:57;0;0;
36513;PMS5003;66331;46.796;9.824;2023-02-01T12:46:28;0;0;
36513;PMS5003;66331;46.796;9.824;2023-02-01T12:49:00;0;0;
36513;PMS5003;66331;46.796;9.824;2023-02-01T12:51:33;0;0;
36513;PMS5003;66331;46.796;9.824;2023-02-01T12:54:04;0;0;
36513;PMS5003;66331;46.796;9.824;2023-02-01T12:56:37;0;0;
36513;PMS5003;66331;46.796;9.824;2023-02-01T12:59:11;0;0;
36513;PMS5003;66331;46.796;9.824;2023-02-01T13:01:45;0;0;
36513;PMS5003;66331;46.796;9.824;2023-02-01T13:04:17;0;0;
36513;PMS5003;66331;46.796;9.824;2023-02-01T13:06:50;0;0;
36513;PMS5003;66331;46.796;9.824;2023-02-01T13:09:23;0;0;
36513;PMS5003;66331;46.796;9.824;2023-02-01T13:11:55;0;0;
36513;PMS5003;66331;46.796;9.824;2023-02-01T13:14:28;0;0;
36513;PMS5003;66331;46.796;9.824;2023-02-01T13:17:02;0;0;
36513;PMS5003;66331;46.796;9.824;2023-02-01T13:19:37;0;0;
36513;PMS5003;66331;46.796;9.824;2023-02-01T13:22:12;0;0;
36513;PMS5003;66331;46.796;9.824;2023-02-01T13:24:42;0;0;
36513;PMS5003;66331;46.796;9.824;2023-02-01T13:27:13;0;0;
36513;PMS5003;66331;46.796;9.824;2023-02-01T13:29:45;0;0;
36513;PMS5003;66331;46.796;9.824;2023-02-01T13:32:29;0;0;
36513;PMS5003;66331;46.796;9.824;2023-02-01T13:35:16;0;0;
36513;PMS5003;66331;46.796;9.824;2023-02-01T13:37:59;0;0;
36513;PMS5003;66331;46.796;9.824;2023-02-01T13:40:49;1;0;
36513;PMS5003;66331;46.796;9.824;2023-02-01T13:43:31;0;0;
36513;PMS5003;66331;46.796;9.824;2023-02-01T13:46:02;0;0;
36513;PMS5003;66331;46.796;9.824;2023-02-01T13:48:35;0;0;
36513;PMS5003;66331;46.796;9.824;2023-02-01T13:51:05;0;0;
36513;PMS5003;66331;46.796;9.824;2023-02-01T13:53:34;0;0;
36513;PMS5003;66331;46.796;9.824;2023-02-01T13:56:02;0;0;
36513;PMS5003;66331;46.796;9.824;2023-02-01T13:58:34;0;0;
36513;PMS5003;66331;46.796;9.824;2023-02-01T14:01:32;0;0;
36513;PMS5003;66331;46.796;9.824;2023-02-01T14:04:01;0;0;
36513;PMS5003;66331;46.796;9.824;2023-02-01T14:06:45;0;0;
36513;PMS5003;66331;46.796;9.824;2023-02-01T14:09:16;0;0;
36513;PMS5003;66331;46.796;9.824;2023-02-01T14:11:46;0;0;
36513;PMS5003;66331;46.796;9.824;2023-02-01T14:14:40;0;0;
36513;PMS5003;66331;46.796;9.824;2023-02-01T14:17:32;0;0;
36513;PMS5003;66331;46.796;9.824;2023-02-01T14:20:39;0;0;
36513;PMS5003;66331;46.796;9.824;2023-02-01T14:23:11;0;0;
36513;PMS5003;66331;46.796;9.824;2023-02-01T14:25:41;0;0;
36513;PMS5003;66331;46.796;9.824;2023-02-01T14:28:10;0;0;
36513;PMS5003;66331;46.796;9.824;2023-02-01T14:30:45;0;0;
36513;PMS5003;66331;46.796;9.824;2023-02-01T14:33:20;1;0;
36513;PMS5003;66331;46.796;9.824;2023-02-01T14:35:55;0;0;
36513;PMS5003;66331;46.796;9.824;2023-02-01T14:38:30;0;0;
36513;PMS5003;66331;46.796;9.824;2023-02-01T14:41:23;0;0;
36513;PMS5003;66331;46.796;9.824;2023-02-01T14:44:29;1;0;
36513;PMS5003;66331;46.796;9.824;2023-02-01T14:47:03;0;0;
36513;PMS5003;66331;46.796;9.824;2023-02-01T14:49:35;0;0;
36513;PMS5003;66331;46.796;9.824;2023-02-01T14:52:09;0;0;
36513;PMS5003;66331;46.796;9.824;2023-02-01T14:54:40;0;0;
36513;PMS5003;66331;46.796;9.824;2023-02-01T14:57:12;0;0;
36513;PMS5003;66331;46.796;9.824;2023-02-01T14:59:44;0;0;
36513;PMS5003;66331;46.796;9.824;2023-02-01T15:02:17;1;1;
36513;PMS5003;66331;46.796;9.824;2023-02-01T15:04:50;0;0;
36513;PMS5003;66331;46.796;9.824;2023-02-01T15:07:20;0;0;
36513;PMS5003;66331;46.796;9.824;2023-02-01T15:09:49;0;0;
36513;PMS5003;66331;46.796;9.824;2023-02-01T15:12:19;0;0;
36513;PMS5003;66331;46.796;9.824;2023-02-01T15:15:03;2;1;
36513;PMS5003;66331;46.796;9.824;2023-02-01T15:17:37;0;0;
36513;PMS5003;66331;46.796;9.824;2023-02-01T15:20:12;0;0;
36513;PMS5003;66331;46.796;9.824;2023-02-01T15:22:40;1;1;
36513;PMS5003;66331;46.796;9.824;2023-02-01T15:25:18;0;0;
36513;PMS5003;66331;46.796;9.824;2023-02-01T15:27:47;1;1;
36513;PMS5003;66331;46.796;9.824;2023-02-01T15:30:16;1;0;
36513;PMS5003;66331;46.796;9.824;2023-02-01T15:32:45;1;1;
36513;PMS5003;66331;46.796;9.824;2023-02-01T15:35:46;0;0;
36513;PMS5003;66331;46.796;9.824;2023-02-01T15:38:18;2;1;
36513;PMS5003;66331;46.796;9.824;2023-02-01T15:40:54;0;0;
36513;PMS5003;66331;46.796;9.824;2023-02-01T15:43:24;1;1;
36513;PMS5003;66331;46.796;9.824;2023-02-01T15:45:52;1;1;
36513;PMS5003;66331;46.796;9.824;2023-02-01T15:48:24;2;2;
36513;PMS5003;66331;46.796;9.824;2023-02-01T15:50:53;1;1;
36513;PMS5003;66331;46.796;9.824;2023-02-01T15:53:21;1;1;
36513;PMS5003;66331;46.796;9.824;2023-02-01T15:55:52;1;1;
36513;PMS5003;66331;46.796;9.824;2023-02-01T15:58:22;2;2;
36513;PMS5003;66331;46.796;9.824;2023-02-01T16:00:52;1;1;
36513;PMS5003;66331;46.796;9.824;2023-02-01T16:03:25;1;1;
36513;PMS5003;66331;46.796;9.824;2023-02-01T16:05:55;0;0;
36513;PMS5003;66331;46.796;9.824;2023-02-01T16:08:23;2;1;
36513;PMS5003;66331;46.796;9.824;2023-02-01T16:10:52;1;1;
36513;PMS5003;66331;46.796;9.824;2023-02-01T16:13:21;1;1;
36513;PMS5003;66331;46.796;9.824;2023-02-01T16:15:48;2;2;
36513;PMS5003;66331;46.796;9.824;2023-02-01T16:18:16;1;1;
36513;PMS5003;66331;46.796;9.824;2023-02-01T16:20:44;1;1;
36513;PMS5003;66331;46.796;9.824;2023-02-01T16:23:11;1;1;
36513;PMS5003;66331;46.796;9.824;2023-02-01T16:25:38;1;1;
36513;PMS5003;66331;46.796;9.824;2023-02-01T16:28:06;0;0;
36513;PMS5003;66331;46.796;9.824;2023-02-01T16:30:34;1;1;
36513;PMS5003;66331;46.796;9.824;2023-02-01T16:33:02;1;1;
36513;PMS5003;66331;46.796;9.824;2023-02-01T16:35:30;1;1;
36513;PMS5003;66331;46.796;9.824;2023-02-01T16:38:00;1;1;
36513;PMS5003;66331;46.796;9.824;2023-02-01T16:40:27;1;1;
36513;PMS5003;66331;46.796;9.824;2023-02-01T16:42:54;1;1;
36513;PMS5003;66331;46.796;9.824;2023-02-01T16:45:21;0;0;
36513;PMS5003;66331;46.796;9.824;2023-02-01T16:47:48;2;1;
36513;PMS5003;66331;46.796;9.824;2023-02-01T16:50:18;3;2;
36513;PMS5003;66331;46.796;9.824;2023-02-01T16:52:49;1;1;
36513;PMS5003;66331;46.796;9.824;2023-02-01T16:55:16;2;2;
36513;PMS5003;66331;46.796;9.824;2023-02-01T16:57:45;3;3;
36513;PMS5003;66331;46.796;9.824;2023-02-01T17:00:12;3;3;
36513;PMS5003;66331;46.796;9.824;2023-02-01T17:02:41;3;3;
36513;PMS5003;66331;46.796;9.824;2023-02-01T17:05:09;3;2;
36513;PMS5003;66331;46.796;9.824;2023-02-01T17:07:36;2;2;
36513;PMS5003;66331;46.796;9.824;2023-02-01T17:10:05;3;3;
36513;PMS5003;66331;46.796;9.824;2023-02-01T17:12:42;4;4;
36513;PMS5003;66331;46.796;9.824;2023-02-01T17:15:10;4;4;
36513;PMS5003;66331;46.796;9.824;2023-02-01T17:17:38;3;3;
36513;PMS5003;66331;46.796;9.824;2023-02-01T17:20:06;2;2;